Time;durP1;ratioP1;P1;durP2;ratioP2;P2;SDS_P1;SDS_P2;PMS_P1;PMS_P2;Temp;Humidity;BMP_temperature;BMP_pressure;BME280_temperature;BME280_humidity;BME280_pressure;Samples;Min_cycle;Max_cycle;Signal;HPM_P1;HPM_P2
2024/01/08 00:01:23;;;;;;;8.57;4.07;;;-4.30;99.90;;;;;;4998758;28;20441;-63
2024/01/08 00:03:53;;;;;;;10.23;4.43;;;-4.30;99.90;;;;;;4998805;28;20464;-63
2024/01/08 00:06:20;;;;;;;5.13;4.63;;;-4.40;99.90;;;;;;4998691;28;20473;-61
2024/01/08 00:08:47;;;;;;;3.93;3.23;;;-4.40;99.90;;;;;;4998536;28;20456;-64
2024/01/08 00:11:14;;;;;;;8.80;3.70;;;-4.30;99.90;;;;;;4998558;28;20472;-64
2024/01/08 00:13:40;;;;;;;2.90;1.60;;;-4.30;99.90;;;;;;4998739;28;20424;-64
2024/01/08 00:16:09;;;;;;;4.63;2.27;;;-4.40;99.90;;;;;;5000234;28;20452;-63
2024/01/08 00:18:36;;;;;;;6.03;2.90;;;-4.40;99.90;;;;;;5002194;28;20485;-65
2024/01/08 00:21:06;;;;;;;1.13;1.00;;;-4.40;99.90;;;;;;5002277;28;20433;-64
2024/01/08 00:23:34;;;;;;;7.23;3.53;;;-4.50;99.90;;;;;;5002243;28;20489;-66
2024/01/08 00:26:01;;;;;;;12.60;5.50;;;-4.60;99.90;;;;;;5002291;28;20437;-64
2024/01/08 00:28:28;;;;;;;4.33;3.00;;;-4.60;99.90;;;;;;5002237;28;20488;-63
2024/01/08 00:30:55;;;;;;;2.57;2.33;;;-4.60;99.90;;;;;;5002339;28;20428;-65
2024/01/08 00:33:23;;;;;;;4.60;3.43;;;-3.80;99.90;;;;;;5002185;28;20440;-64
2024/01/08 00:35:52;;;;;;;7.03;3.03;;;-4.70;99.90;;;;;;5002155;28;20453;-64
2024/01/08 00:38:19;;;;;;;2.60;2.40;;;-4.70;99.90;;;;;;5002049;28;20437;-64
2024/01/08 00:40:46;;;;;;;4.60;3.37;;;-4.70;99.90;;;;;;5002052;28;20459;-58
2024/01/08 00:43:13;;;;;;;4.73;3.30;;;-4.70;99.90;;;;;;5002039;28;20473;-62
2024/01/08 00:45:41;;;;;;;6.70;2.87;;;-4.70;99.90;;;;;;5002094;28;20446;-62
2024/01/08 00:48:08;;;;;;;2.10;1.90;;;-4.70;99.90;;;;;;5001965;28;20460;-62
2024/01/08 00:50:36;;;;;;;10.27;4.97;;;-4.60;99.90;;;;;;5002097;28;20447;-66
2024/01/08 00:53:04;;;;;;;10.20;3.00;;;-4.60;99.90;;;;;;4985231;28;20432;-65
2024/01/08 00:55:30;;;;;;;10.10;4.10;;;-4.60;99.90;;;;;;5001837;28;20460;-65
2024/01/08 00:57:58;;;;;;;11.87;4.63;;;-4.60;99.90;;;;;;5001673;28;20466;-64
2024/01/08 01:00:28;;;;;;;8.93;3.90;;;-4.60;99.90;;;;;;5001524;28;20480;-64
2024/01/08 01:02:55;;;;;;;7.40;4.23;;;-4.60;99.90;;;;;;5001554;28;20472;-64
2024/01/08 01:05:24;;;;;;;9.00;4.50;;;-4.60;99.90;;;;;;5001597;28;20453;-62
2024/01/08 01:07:52;;;;;;;7.40;4.17;;;-4.60;99.90;;;;;;5001396;28;20467;-60
2024/01/08 01:10:19;;;;;;;7.00;4.00;;;-4.50;99.90;;;;;;5012006;28;20452;-61
2024/01/08 01:12:46;;;;;;;10.33;4.60;;;-4.70;99.90;;;;;;5021033;28;20468;-61
2024/01/08 01:15:13;;;;;;;7.03;3.73;;;-4.70;99.90;;;;;;5020938;28;20444;-63
2024/01/08 01:17:42;;;;;;;5.27;2.37;;;-4.70;99.90;;;;;;5021024;28;20431;-62
2024/01/08 01:20:10;;;;;;;5.13;2.20;;;-4.70;99.90;;;;;;5020892;28;20450;-61
2024/01/08 01:22:36;;;;;;;6.83;4.47;;;-4.70;99.90;;;;;;5020794;28;20445;-61
2024/01/08 01:25:05;;;;;;;7.13;3.67;;;-4.80;99.90;;;;;;5020858;28;20452;-63
2024/01/08 01:27:32;;;;;;;5.43;3.53;;;-4.70;99.90;;;;;;5019643;28;20431;-63
2024/01/08 01:30:03;;;;;;;7.13;3.13;;;-4.70;99.90;;;;;;5020619;28;20426;-60
2024/01/08 01:32:33;;;;;;;5.53;3.40;;;-4.60;99.90;;;;;;5020690;28;20418;-59
2024/01/08 01:35:00;;;;;;;4.07;3.17;;;-4.50;99.90;;;;;;5020743;28;20452;-59
2024/01/08 01:37:27;;;;;;;12.10;5.53;;;-4.50;99.90;;;;;;5020455;28;20483;-62
2024/01/08 01:39:54;;;;;;;6.67;3.90;;;-4.50;99.90;;;;;;5020586;28;20443;-62
2024/01/08 01:42:22;;;;;;;4.13;3.27;;;-4.50;99.90;;;;;;5020586;28;20436;-60
2024/01/08 01:44:49;;;;;;;6.07;2.83;;;-4.50;99.90;;;;;;5020369;28;20538;-62
2024/01/08 01:47:16;;;;;;;4.10;3.20;;;-4.50;99.90;;;;;;5020532;28;20452;-61
2024/01/08 01:49:44;;;;;;;7.47;3.77;;;-4.50;99.90;;;;;;5001854;28;20562;-65
2024/01/08 01:52:11;;;;;;;14.23;3.73;;;-4.60;99.90;;;;;;4996847;28;20444;-64
2024/01/08 01:54:38;;;;;;;3.00;2.30;;;-4.60;99.90;;;;;;4996720;28;20446;-65
2024/01/08 01:57:06;;;;;;;5.60;4.67;;;-4.60;99.90;;;;;;4996922;28;20544;-65
2024/01/08 01:59:35;;;;;;;4.47;4.07;;;-4.70;99.90;;;;;;4996909;28;20567;-65
2024/01/08 02:02:03;;;;;;;6.83;3.97;;;-4.70;99.90;;;;;;4997329;28;20563;-63
2024/01/08 02:04:31;;;;;;;3.70;2.77;;;-4.70;99.90;;;;;;4998854;28;20479;-65
2024/01/08 02:07:00;;;;;;;9.43;3.57;;;-4.70;99.90;;;;;;5014363;28;20453;-64
2024/01/08 02:09:28;;;;;;;9.00;3.47;;;-4.70;99.90;;;;;;5016998;28;20437;-63
2024/01/08 02:11:55;;;;;;;4.00;2.80;;;-4.50;99.90;;;;;;5016317;28;20439;-64
2024/01/08 02:14:22;;;;;;;8.40;3.90;;;-4.60;99.90;;;;;;5015887;28;20472;-64
2024/01/08 02:16:50;;;;;;;4.93;2.97;;;-4.60;99.90;;;;;;5015922;28;20447;-64
2024/01/08 02:19:17;;;;;;;6.97;3.63;;;-4.60;99.90;;;;;;5015853;28;20459;-63
2024/01/08 02:21:44;;;;;;;6.23;1.70;;;-4.70;99.90;;;;;;5013334;28;20442;-64
2024/01/08 02:24:13;;;;;;;5.53;3.03;;;-4.70;99.90;;;;;;4996218;28;20888;-64
2024/01/08 02:26:39;;;;;;;6.33;3.23;;;-4.80;99.90;;;;;;4996069;28;20523;-63
2024/01/08 02:29:06;;;;;;;9.80;3.77;;;-4.90;99.90;;;;;;4996178;28;20488;-65
2024/01/08 02:31:33;;;;;;;5.93;3.43;;;-4.90;99.90;;;;;;4996173;28;20535;-64
2024/01/08 02:34:00;;;;;;;6.17;3.30;;;-4.80;99.90;;;;;;4996232;28;20539;-64
2024/01/08 02:36:27;;;;;;;6.00;4.23;;;-4.70;99.90;;;;;;4996117;28;20530;-65
2024/01/08 02:38:54;;;;;;;10.73;5.87;;;-4.70;99.90;;;;;;4995432;28;20543;-64
2024/01/08 02:41:22;;;;;;;6.93;4.27;;;-4.80;99.90;;;;;;4995886;28;20526;-63
2024/01/08 02:43:49;;;;;;;6.30;4.43;;;-4.80;99.90;;;;;;4995597;28;20481;-64
2024/01/08 02:46:15;;;;;;;9.33;4.23;;;-4.80;99.90;;;;;;4995825;28;20859;-64
2024/01/08 02:48:42;;;;;;;4.60;3.57;;;-4.90;99.90;;;;;;4995554;28;20456;-66
2024/01/08 02:51:09;;;;;;;6.77;3.60;;;-4.90;99.90;;;;;;4995538;28;20476;-64
2024/01/08 02:53:36;;;;;;;3.23;2.93;;;-4.90;99.90;;;;;;4995970;28;20601;-66
2024/01/08 02:56:03;;;;;;;5.53;4.00;;;-3.80;99.90;;;;;;4995512;28;20514;-64
2024/01/08 02:58:31;;;;;;;4.70;3.20;;;-4.80;99.90;;;;;;4995809;28;20436;-64
2024/01/08 03:00:59;;;;;;;9.13;2.83;;;-4.80;99.90;;;;;;4995344;28;20480;-63
2024/01/08 03:03:26;;;;;;;4.70;2.37;;;-4.80;99.90;;;;;;4995203;28;20495;-64
2024/01/08 03:05:54;;;;;;;3.73;2.60;;;-4.90;99.90;;;;;;4995618;28;20509;-66
2024/01/08 03:08:20;;;;;;;4.90;2.50;;;-4.80;99.90;;;;;;4995134;28;20913;-64
2024/01/08 03:10:47;;;;;;;7.47;2.40;;;-4.80;99.90;;;;;;4994770;28;20546;-64
2024/01/08 03:13:15;;;;;;;1.20;1.00;;;-4.80;99.90;;;;;;4995383;28;20858;-65
2024/01/08 03:15:43;;;;;;;2.80;2.60;;;-4.80;99.90;;;;;;4995412;28;20495;-64
2024/01/08 03:18:10;;;;;;;7.93;3.50;;;-4.90;99.90;;;;;;4995197;28;20444;-63
2024/01/08 03:20:37;;;;;;;3.50;2.87;;;-4.90;99.90;;;;;;4995348;28;20532;-64
2024/01/08 03:23:04;;;;;;;4.00;3.23;;;-4.90;99.90;;;;;;4995434;28;20446;-64
2024/01/08 03:25:31;;;;;;;5.57;3.73;;;-4.90;99.90;;;;;;4995198;28;20447;-64
2024/01/08 03:27:57;;;;;;;7.87;4.50;;;-4.90;99.90;;;;;;4995337;28;20555;-63
2024/01/08 03:30:24;;;;;;;6.43;3.50;;;-5.00;99.90;;;;;;4995430;28;20531;-64
2024/01/08 03:32:52;;;;;;;6.40;4.27;;;-5.00;99.90;;;;;;4995267;28;20564;-66
2024/01/08 03:35:20;;;;;;;6.57;4.10;;;-4.90;99.90;;;;;;4995297;28;20511;-64
2024/01/08 03:37:46;;;;;;;3.00;1.73;;;-4.90;99.90;;;;;;4995315;28;20482;-64
2024/01/08 03:40:14;;;;;;;11.60;3.83;;;-5.00;99.90;;;;;;4995121;28;20562;-66
2024/01/08 03:42:40;;;;;;;7.60;3.07;;;-5.00;99.90;;;;;;4994897;28;20470;-64
2024/01/08 03:45:08;;;;;;;7.23;5.33;;;-5.00;99.90;;;;;;4994809;28;20479;-64
2024/01/08 03:47:36;;;;;;;9.90;4.80;;;-5.00;99.90;;;;;;4994985;28;20946;-66
2024/01/08 03:50:05;;;;;;;9.60;4.63;;;-5.10;99.90;;;;;;4994980;28;20488;-61
2024/01/08 03:52:32;;;;;;;4.13;2.63;;;-5.00;99.90;;;;;;4999161;28;21024;-64
2024/01/08 03:54:59;;;;;;;5.20;3.60;;;-5.00;99.90;;;;;;4998873;28;20540;-64
2024/01/08 03:57:26;;;;;;;9.27;3.70;;;-4.90;99.90;;;;;;4999009;28;20559;-64
2024/01/08 03:59:53;;;;;;;5.73;3.00;;;-5.00;99.90;;;;;;4998862;28;20882;-64
2024/01/08 04:02:20;;;;;;;3.73;1.73;;;-5.00;99.90;;;;;;4998730;28;20479;-63
2024/01/08 04:04:47;;;;;;;4.13;2.30;;;-5.00;99.90;;;;;;4998620;28;20865;-63
2024/01/08 04:07:15;;;;;;;7.27;3.57;;;-5.00;99.90;;;;;;4998756;28;20488;-64
2024/01/08 04:09:42;;;;;;;6.27;3.43;;;-5.00;99.90;;;;;;4998594;28;20987;-64
2024/01/08 04:12:09;;;;;;;5.73;3.47;;;-5.10;99.90;;;;;;4998867;28;20518;-65
2024/01/08 04:14:37;;;;;;;5.77;3.60;;;-5.10;99.90;;;;;;4998450;28;20444;-62
2024/01/08 04:17:04;;;;;;;3.77;1.90;;;-5.10;99.90;;;;;;4998507;28;20512;-64
2024/01/08 04:19:31;;;;;;;2.27;1.40;;;-5.10;99.90;;;;;;4998790;28;20542;-64
2024/01/08 04:21:58;;;;;;;4.27;2.67;;;-5.10;99.90;;;;;;4998334;28;20950;-64
2024/01/08 04:24:26;;;;;;;4.03;2.40;;;-5.10;99.90;;;;;;4998372;28;20972;-64
2024/01/08 04:26:53;;;;;;;2.63;1.80;;;-5.10;99.90;;;;;;4998581;28;20529;-62
2024/01/08 04:29:20;;;;;;;6.73;3.70;;;-5.10;99.90;;;;;;4998398;28;21168;-62
2024/01/08 04:31:46;;;;;;;5.03;2.23;;;-5.10;99.90;;;;;;4998254;28;20997;-65
2024/01/08 04:34:13;;;;;;;5.87;3.50;;;-5.10;99.90;;;;;;4998134;28;20548;-64
2024/01/08 04:36:42;;;;;;;4.53;3.80;;;-5.10;99.90;;;;;;4998446;28;20535;-64
2024/01/08 04:39:11;;;;;;;8.60;3.93;;;-5.20;99.90;;;;;;4998385;28;20550;-63
2024/01/08 04:41:39;;;;;;;4.13;3.10;;;-5.20;99.90;;;;;;4998072;28;20534;-64
2024/01/08 04:44:06;;;;;;;11.73;3.90;;;-5.10;99.90;;;;;;4998166;28;20491;-64
2024/01/08 04:46:33;;;;;;;4.80;3.23;;;-5.10;99.90;;;;;;4998163;28;20475;-63
2024/01/08 04:49:00;;;;;;;3.37;1.90;;;-5.10;99.90;;;;;;4998273;28;20515;-63
2024/01/08 04:51:27;;;;;;;3.33;3.03;;;-5.00;99.90;;;;;;4998160;28;20534;-63
2024/01/08 04:53:54;;;;;;;9.30;2.80;;;-5.00;99.90;;;;;;4997773;28;20570;-63
2024/01/08 04:56:22;;;;;;;3.57;3.07;;;-5.10;99.90;;;;;;4998130;28;20487;-64
2024/01/08 04:58:52;;;;;;;3.63;2.90;;;-5.10;99.90;;;;;;4998024;28;20478;-64
2024/01/08 05:01:19;;;;;;;3.90;2.80;;;-5.10;99.90;;;;;;4997674;28;20490;-64
2024/01/08 05:03:46;;;;;;;6.03;3.23;;;-5.00;99.90;;;;;;4997860;28;20783;-64
2024/01/08 05:06:14;;;;;;;3.23;2.20;;;-5.00;99.90;;;;;;4997782;28;20931;-64
2024/01/08 05:08:41;;;;;;;8.30;4.20;;;-4.40;99.90;;;;;;4997570;28;20503;-63
2024/01/08 05:11:09;;;;;;;2.00;1.90;;;-5.00;99.90;;;;;;4996798;28;20492;-63
2024/01/08 05:13:36;;;;;;;5.63;2.97;;;-5.00;99.90;;;;;;4997770;28;20510;-64
2024/01/08 05:16:06;;;;;;;10.20;3.00;;;-5.00;99.90;;;;;;4997450;28;20842;-63
2024/01/08 05:18:33;;;;;;;4.43;2.53;;;-5.00;99.90;;;;;;4997774;28;20465;-63
2024/01/08 05:21:00;;;;;;;4.57;3.83;;;-5.00;99.90;;;;;;4997601;28;20499;-63
2024/01/08 05:23:27;;;;;;;9.97;4.97;;;-4.90;99.90;;;;;;4997651;28;20444;-63
2024/01/08 05:25:58;;;;;;;4.93;3.20;;;-5.00;99.90;;;;;;4997229;28;20489;-63
2024/01/08 05:28:25;;;;;;;7.27;3.73;;;-5.00;99.90;;;;;;4997664;28;20454;-64
2024/01/08 05:30:52;;;;;;;4.83;3.20;;;-4.30;99.90;;;;;;4997479;28;20496;-62
2024/01/08 05:33:21;;;;;;;8.83;3.60;;;-5.00;99.90;;;;;;4997338;28;20507;-63
2024/01/08 05:35:48;;;;;;;9.97;3.93;;;-5.00;99.90;;;;;;4997279;28;20797;-62
2024/01/08 05:38:15;;;;;;;4.17;2.80;;;-4.60;99.90;;;;;;4997122;28;20496;-61
2024/01/08 05:40:42;;;;;;;8.90;5.70;;;-5.10;99.90;;;;;;4997098;28;20867;-63
2024/01/08 05:43:09;;;;;;;8.33;5.20;;;-5.10;99.90;;;;;;4997199;28;20559;-64
2024/01/08 05:45:35;;;;;;;3.07;2.60;;;-5.10;99.90;;;;;;4997228;28;20583;-63
2024/01/08 05:48:02;;;;;;;8.57;2.73;;;-5.10;99.90;;;;;;4996963;28;20909;-63
2024/01/08 05:50:31;;;;;;;5.93;2.83;;;-5.00;99.90;;;;;;4997094;28;20448;-63
2024/01/08 05:52:57;;;;;;;11.63;6.13;;;-5.10;99.90;;;;;;4996842;28;21120;-63
2024/01/08 05:55:25;;;;;;;4.77;3.00;;;-5.10;99.90;;;;;;4996826;28;20771;-63
2024/01/08 05:57:52;;;;;;;7.13;3.37;;;-5.00;99.90;;;;;;4996817;28;20440;-63
2024/01/08 06:00:19;;;;;;;9.27;4.90;;;-5.00;99.90;;;;;;4996835;28;20494;-63
2024/01/08 06:02:46;;;;;;;8.10;4.80;;;-5.10;99.90;;;;;;4997024;28;20475;-59
2024/01/08 06:05:14;;;;;;;8.33;4.87;;;-5.00;99.90;;;;;;4996662;28;20486;-62
2024/01/08 06:07:42;;;;;;;4.00;3.00;;;-5.10;99.90;;;;;;4996744;28;20556;-62
2024/01/08 06:10:10;;;;;;;5.93;3.10;;;-5.10;99.90;;;;;;4996508;28;20471;-64
2024/01/08 06:12:37;;;;;;;7.90;5.00;;;-5.10;99.90;;;;;;4996676;28;20473;-62
2024/01/08 06:15:05;;;;;;;8.73;4.43;;;-5.00;99.90;;;;;;4996320;28;20454;-63
2024/01/08 06:17:32;;;;;;;12.70;6.50;;;-5.00;99.90;;;;;;4996234;28;20490;-63
2024/01/08 06:19:59;;;;;;;4.50;2.80;;;-5.10;99.90;;;;;;4996548;28;20995;-62
2024/01/08 06:22:26;;;;;;;5.83;3.73;;;-5.10;99.90;;;;;;4996251;28;21028;-62
2024/01/08 06:24:54;;;;;;;5.40;3.47;;;-5.00;99.90;;;;;;4996427;28;20484;-63
2024/01/08 06:27:21;;;;;;;8.70;4.40;;;-5.00;99.90;;;;;;4996411;28;20495;-62
2024/01/08 06:29:48;;;;;;;8.87;4.30;;;-5.10;99.90;;;;;;4996142;28;20960;-62
2024/01/08 06:32:14;;;;;;;5.47;3.63;;;-5.00;99.90;;;;;;4996225;28;20831;-63
2024/01/08 06:34:41;;;;;;;6.90;5.20;;;-5.00;99.90;;;;;;4996513;28;20580;-62
2024/01/08 06:37:09;;;;;;;5.97;4.17;;;-5.00;99.90;;;;;;4996215;28;20452;-64
2024/01/08 06:39:37;;;;;;;9.77;3.90;;;-5.00;99.90;;;;;;4996330;28;20483;-63
2024/01/08 06:42:05;;;;;;;5.20;2.30;;;-5.00;99.90;;;;;;4995874;28;20510;-63
2024/01/08 06:44:32;;;;;;;6.10;4.97;;;-4.90;99.90;;;;;;4995688;28;20571;-62
2024/01/08 06:46:59;;;;;;;4.20;2.20;;;-5.00;99.90;;;;;;4995887;28;20948;-62
2024/01/08 06:49:26;;;;;;;3.50;3.03;;;-5.00;99.90;;;;;;4995958;28;20516;-64
2024/01/08 06:51:53;;;;;;;3.60;2.67;;;-5.00;99.90;;;;;;4995753;28;20915;-64
2024/01/08 06:54:20;;;;;;;7.23;3.17;;;-5.00;99.90;;;;;;4996142;28;20450;-64
2024/01/08 06:56:47;;;;;;;5.63;2.60;;;-5.00;99.90;;;;;;4995755;28;20562;-64
2024/01/08 06:59:16;;;;;;;10.47;6.07;;;-5.00;99.90;;;;;;4990136;28;20483;-64
2024/01/08 07:01:43;;;;;;;5.13;2.73;;;-5.10;99.90;;;;;;4976295;28;20551;-65
2024/01/08 07:04:10;;;;;;;5.37;2.57;;;-5.10;99.90;;;;;;4976353;28;20448;-65
2024/01/08 07:06:37;;;;;;;9.40;4.30;;;-5.10;99.90;;;;;;4975910;28;20548;-64
2024/01/08 07:09:04;;;;;;;3.87;1.37;;;-5.10;99.90;;;;;;4978658;28;20462;-65
2024/01/08 07:11:31;;;;;;;5.30;4.73;;;-5.10;99.90;;;;;;4994820;28;20444;-63
2024/01/08 07:13:59;;;;;;;8.60;5.33;;;-5.10;99.90;;;;;;4995470;28;20454;-64
2024/01/08 07:16:27;;;;;;;6.53;4.50;;;-5.10;99.90;;;;;;4995554;28;20444;-63
2024/01/08 07:18:55;;;;;;;4.77;3.23;;;-5.10;99.90;;;;;;4995499;28;20447;-65
2024/01/08 07:21:22;;;;;;;7.20;4.10;;;-5.00;99.90;;;;;;4995341;28;20441;-64
2024/01/08 07:23:50;;;;;;;6.57;4.27;;;-5.00;99.90;;;;;;4995205;28;20980;-63
2024/01/08 07:26:17;;;;;;;5.07;3.20;;;-5.00;99.90;;;;;;4992974;28;20562;-64
2024/01/08 07:28:44;;;;;;;5.30;2.57;;;-5.10;99.90;;;;;;4985343;28;20560;-65
2024/01/08 07:31:15;;;;;;;10.53;4.77;;;-5.10;99.90;;;;;;4980333;28;20536;-66
2024/01/08 07:33:43;;;;;;;9.27;5.53;;;-5.00;99.90;;;;;;4995194;28;20476;-63
2024/01/08 07:36:10;;;;;;;4.87;3.70;;;-5.00;99.90;;;;;;4995135;28;20476;-62
2024/01/08 07:38:37;;;;;;;6.80;3.10;;;-5.00;99.90;;;;;;4995318;28;20596;-64
2024/01/08 07:41:04;;;;;;;8.63;4.47;;;-5.00;99.90;;;;;;4989610;28;20436;-62
2024/01/08 07:43:31;;;;;;;7.30;4.40;;;-4.90;99.90;;;;;;4986723;28;20449;-62
2024/01/08 07:45:58;;;;;;;6.90;4.33;;;-4.80;99.90;;;;;;4984493;28;20538;-63
2024/01/08 07:48:26;;;;;;;4.27;2.63;;;-4.80;99.90;;;;;;4987972;28;20553;-65
2024/01/08 07:50:55;;;;;;;6.47;4.20;;;-4.80;99.90;;;;;;4991255;28;20946;-63
2024/01/08 07:53:22;;;;;;;5.07;3.47;;;-4.90;99.90;;;;;;4995161;28;20505;-62
2024/01/08 07:55:49;;;;;;;4.07;2.80;;;-4.90;99.90;;;;;;4995176;28;20469;-62
2024/01/08 07:58:17;;;;;;;6.37;4.23;;;-4.90;99.90;;;;;;4995150;28;20522;-62
2024/01/08 08:00:43;;;;;;;8.60;4.63;;;-4.90;99.90;;;;;;4995060;28;20538;-59
2024/01/08 08:03:11;;;;;;;9.33;5.13;;;-5.00;99.90;;;;;;4994937;28;20483;-61
2024/01/08 08:05:39;;;;;;;16.10;4.20;;;-4.90;99.90;;;;;;4994926;28;20837;-62
2024/01/08 08:08:07;;;;;;;8.87;4.97;;;-4.90;99.90;;;;;;4994816;28;21007;-64
2024/01/08 08:10:36;;;;;;;11.20;5.30;;;-4.90;99.90;;;;;;4994705;28;20483;-62
2024/01/08 08:13:03;;;;;;;5.70;3.67;;;-5.00;99.90;;;;;;4987222;28;20508;-62
2024/01/08 08:15:30;;;;;;;11.07;5.90;;;-3.50;99.90;;;;;;4991929;28;20495;-61
2024/01/08 08:17:56;;;;;;;9.37;5.10;;;-3.40;99.90;;;;;;4994840;28;20752;-61
2024/01/08 08:20:29;;;;;;;8.43;5.17;;;-3.70;99.90;;;;;;5012565;28;20444;-64
2024/01/08 08:22:56;;;;;;;11.50;7.97;;;-3.90;99.90;;;;;;5016551;28;20469;-63
2024/01/08 08:25:24;;;;;;;6.00;4.60;;;-4.10;99.90;;;;;;5017048;28;20506;-61
2024/01/08 08:27:51;;;;;;;5.47;4.17;;;-4.20;99.90;;;;;;5016815;28;20444;-60
2024/01/08 08:30:19;;;;;;;4.53;3.87;;;-4.30;99.90;;;;;;5017024;28;20448;-59
2024/01/08 08:32:46;;;;;;;6.17;3.47;;;-4.40;99.90;;;;;;5017291;28;20487;-62
2024/01/08 08:35:13;;;;;;;10.27;4.07;;;-4.50;99.90;;;;;;5016666;28;20463;-56
2024/01/08 08:37:40;;;;;;;7.17;3.93;;;-4.30;99.90;;;;;;5019812;28;20451;-57
2024/01/08 08:40:11;;;;;;;8.67;4.53;;;-4.60;99.90;;;;;;5020380;28;20467;-58
2024/01/08 08:42:39;;;;;;;7.07;4.00;;;-4.60;99.90;;;;;;5013412;28;20441;-62
2024/01/08 08:45:08;;;;;;;4.93;3.47;;;-4.40;99.90;;;;;;5011853;28;20499;-60
2024/01/08 08:47:35;;;;;;;6.20;3.13;;;-4.50;99.90;;;;;;5007263;28;20420;-59
2024/01/08 08:50:02;;;;;;;5.37;2.70;;;-4.50;99.90;;;;;;5017487;28;20440;-60
2024/01/08 08:52:29;;;;;;;8.43;5.20;;;-4.50;99.90;;;;;;5020570;28;20472;-62
2024/01/08 08:54:56;;;;;;;11.70;4.70;;;-4.50;99.90;;;;;;5020235;28;20439;-63
2024/01/08 08:57:23;;;;;;;10.10;4.50;;;-4.50;99.90;;;;;;5020091;28;20455;-63
2024/01/08 08:59:51;;;;;;;7.10;4.57;;;-4.50;99.90;;;;;;5020010;28;20462;-63
2024/01/08 09:02:18;;;;;;;7.30;6.33;;;-4.50;99.90;;;;;;5017298;28;20422;-62
2024/01/08 09:04:45;;;;;;;5.63;5.10;;;-4.50;99.90;;;;;;5003869;28;20448;-61
2024/01/08 09:07:12;;;;;;;8.83;4.43;;;-4.50;99.90;;;;;;5000162;28;20537;-62
2024/01/08 09:09:38;;;;;;;9.43;5.17;;;-4.50;99.90;;;;;;5000090;28;20466;-60
2024/01/08 09:12:06;;;;;;;4.27;2.93;;;-4.40;99.90;;;;;;5003963;28;20431;-63
2024/01/08 09:14:33;;;;;;;3.73;1.90;;;-4.40;99.90;;;;;;5000317;28;21068;-60
2024/01/08 09:17:02;;;;;;;4.33;3.13;;;-4.40;99.90;;;;;;5000349;28;20438;-62
2024/01/08 09:19:29;;;;;;;10.53;5.73;;;-4.40;99.90;;;;;;5017322;28;20448;-63
2024/01/08 09:21:56;;;;;;;8.13;3.93;;;-4.30;99.90;;;;;;5019881;28;20435;-63
2024/01/08 09:24:25;;;;;;;7.30;3.50;;;-4.20;99.90;;;;;;5019570;28;20459;-61
2024/01/08 09:26:55;;;;;;;10.60;3.40;;;-4.30;99.90;;;;;;5019964;28;20507;-59
2024/01/08 09:29:22;;;;;;;8.67;4.17;;;-4.30;99.90;;;;;;5020117;28;20471;-57
2024/01/08 09:31:50;;;;;;;13.23;5.30;;;-4.20;99.90;;;;;;5019879;28;20486;-63
2024/01/08 09:34:18;;;;;;;5.97;4.43;;;-4.20;99.90;;;;;;5019129;28;20451;-63
2024/01/08 09:36:45;;;;;;;2.80;2.53;;;-4.20;99.90;;;;;;5019844;28;20485;-60
2024/01/08 09:39:12;;;;;;;6.57;4.73;;;-4.10;99.90;;;;;;5018873;28;20476;-63
2024/01/08 09:41:39;;;;;;;7.03;5.70;;;-4.00;99.90;;;;;;5018820;28;20439;-62
2024/01/08 09:44:07;;;;;;;8.00;4.40;;;-3.70;99.90;;;;;;5019346;28;20452;-61
2024/01/08 09:46:37;;;;;;;6.23;4.00;;;-3.30;99.90;;;;;;5019880;28;20492;-59
2024/01/08 09:49:04;;;;;;;5.13;2.87;;;-2.90;99.90;;;;;;5018741;28;20452;-60
2024/01/08 09:51:33;;;;;;;8.10;3.40;;;-2.40;99.90;;;;;;5019921;28;20452;-59
2024/01/08 09:54:03;;;;;;;9.67;5.20;;;-2.10;99.90;;;;;;5019210;28;20467;-64
2024/01/08 09:56:31;;;;;;;9.00;4.43;;;-1.90;99.90;;;;;;5019499;28;20441;-62
2024/01/08 09:58:58;;;;;;;7.10;5.07;;;-1.80;99.90;;;;;;5018303;28;20460;-61
2024/01/08 10:01:24;;;;;;;16.73;6.47;;;-1.40;99.90;;;;;;5018747;28;20501;-62
2024/01/08 10:03:51;;;;;;;5.90;3.60;;;-0.90;99.90;;;;;;5018463;28;20521;-58
2024/01/08 10:06:18;;;;;;;4.17;3.63;;;-0.80;99.90;;;;;;5017647;28;20480;-62
2024/01/08 10:08:49;;;;;;;7.33;4.30;;;-0.90;99.90;;;;;;5017868;28;20460;-61
2024/01/08 10:11:16;;;;;;;7.83;5.00;;;-0.80;99.90;;;;;;5018362;28;20463;-63
2024/01/08 10:13:43;;;;;;;11.10;5.10;;;-0.80;99.90;;;;;;5018168;28;20453;-62
2024/01/08 10:16:11;;;;;;;4.93;3.43;;;-0.80;99.90;;;;;;5017756;28;20476;-63
2024/01/08 10:18:39;;;;;;;3.87;2.73;;;-0.70;99.90;;;;;;5018163;28;20429;-64
2024/01/08 10:21:10;;;;;;;6.80;3.53;;;-0.40;99.90;;;;;;5000794;28;20458;-62
2024/01/08 10:23:37;;;;;;;7.87;4.33;;;0.00;99.90;;;;;;5006703;28;20441;-62
2024/01/08 10:26:11;;;;;;;5.20;2.70;;;0.40;99.90;;;;;;5007684;28;20483;-64
2024/01/08 10:28:38;;;;;;;6.60;4.57;;;1.10;99.40;;;;;;5015895;28;20469;-64
2024/01/08 10:31:06;;;;;;;15.47;5.50;;;1.70;94.50;;;;;;5018524;28;20460;-64
2024/01/08 10:33:36;;;;;;;10.63;4.20;;;2.10;91.90;;;;;;5017631;28;20521;-64
2024/01/08 10:36:04;;;;;;;7.90;3.70;;;2.70;87.10;;;;;;5002005;28;20440;-65
2024/01/08 10:38:33;;;;;;;9.00;4.50;;;2.90;81.70;;;;;;4998402;28;20446;-64
2024/01/08 10:41:01;;;;;;;8.93;4.80;;;2.50;78.50;;;;;;4998772;28;20430;-65
2024/01/08 10:43:32;;;;;;;5.67;3.80;;;1.70;79.60;;;;;;4999858;28;20433;-63
2024/01/08 10:46:02;;;;;;;9.63;4.63;;;1.00;85.30;;;;;;5009544;28;20522;-63
2024/01/08 10:48:39;;;;;;;9.70;4.30;;;0.30;89.60;;;;;;5017484;28;20445;-62
2024/01/08 10:51:09;;;;;;;7.80;3.73;;;-0.30;92.60;;;;;;5016278;28;20551;-62
2024/01/08 10:53:44;;;;;;;5.83;3.47;;;-0.70;95.10;;;;;;5010511;28;20470;-62
2024/01/08 10:56:13;;;;;;;5.87;3.30;;;-1.10;96.90;;;;;;5011460;28;20464;-60
2024/01/08 10:58:49;;;;;;;5.20;2.87;;;-1.30;98.80;;;;;;5017456;28;20449;-56
2024/01/08 11:01:17;;;;;;;5.33;2.30;;;-1.60;99.70;;;;;;5017703;28;20468;-62
2024/01/08 11:03:50;;;;;;;5.37;2.80;;;-1.80;99.90;;;;;;5013689;28;20473;-62
2024/01/08 11:06:17;;;;;;;6.33;3.40;;;-1.90;99.90;;;;;;4998520;28;20470;-60
2024/01/08 11:08:44;;;;;;;4.03;2.70;;;-1.90;99.90;;;;;;4998370;28;20490;-62
2024/01/08 11:11:15;;;;;;;3.43;2.13;;;-2.00;99.90;;;;;;4998179;28;20460;-63
2024/01/08 11:13:46;;;;;;;6.50;4.60;;;-2.10;99.90;;;;;;4997947;28;20489;-63
2024/01/08 11:16:20;;;;;;;5.23;2.83;;;-2.20;99.90;;;;;;4998287;28;20426;-60
2024/01/08 11:18:47;;;;;;;6.50;3.80;;;-2.20;99.90;;;;;;4997925;28;20488;-61
2024/01/08 11:21:14;;;;;;;7.30;3.67;;;-2.30;99.90;;;;;;4998151;28;20434;-61
2024/01/08 11:23:42;;;;;;;5.90;3.60;;;-2.30;99.90;;;;;;4997739;28;20452;-61
2024/01/08 11:26:14;;;;;;;5.50;3.17;;;-2.30;99.90;;;;;;4997152;28;20468;-62
2024/01/08 11:28:43;;;;;;;3.63;2.57;;;-2.30;99.90;;;;;;4997727;28;20481;-62
2024/01/08 11:31:50;;;;;;;7.73;2.83;;;-2.40;99.90;;;;;;4996986;28;20434;-62
2024/01/08 11:34:55;;;;;;;4.93;2.80;;;-2.50;99.90;;;;;;4997139;28;20473;-62
2024/01/08 11:37:41;;;;;;;4.20;3.23;;;-2.50;99.90;;;;;;4997500;28;20441;-61
2024/01/08 11:40:15;;;;;;;3.30;2.87;;;-2.40;99.90;;;;;;4997436;28;20434;-61
2024/01/08 11:42:43;;;;;;;7.17;3.00;;;-2.40;99.90;;;;;;4997167;28;20428;-62
2024/01/08 11:45:12;;;;;;;8.47;3.40;;;-2.40;99.90;;;;;;4996948;28;20454;-62
2024/01/08 11:47:39;;;;;;;5.33;3.70;;;-2.40;99.90;;;;;;5010317;28;20511;-63
2024/01/08 11:50:08;;;;;;;4.73;2.77;;;-2.40;99.90;;;;;;5012079;28;20463;-63
2024/01/08 11:52:38;;;;;;;7.77;4.30;;;-2.40;99.90;;;;;;5005994;28;20493;-61
2024/01/08 11:55:07;;;;;;;4.17;2.90;;;-2.40;99.90;;;;;;5017276;28;20521;-62
2024/01/08 11:57:38;;;;;;;7.60;3.10;;;-2.30;99.90;;;;;;5017326;28;20437;-62
2024/01/08 12:00:14;;;;;;;5.63;3.13;;;-2.30;99.90;;;;;;5017118;28;20457;-61
2024/01/08 12:02:41;;;;;;;2.50;2.07;;;-2.20;99.90;;;;;;5003322;28;20430;-63
2024/01/08 12:05:08;;;;;;;6.60;3.20;;;-2.20;99.90;;;;;;4996857;28;20453;-63
2024/01/08 12:07:38;;;;;;;5.33;2.77;;;-2.20;99.90;;;;;;4995828;28;20488;-62
2024/01/08 12:10:07;;;;;;;4.50;2.90;;;-2.30;99.90;;;;;;4996502;28;20465;-63
2024/01/08 12:12:36;;;;;;;4.37;2.20;;;-2.20;99.90;;;;;;4999269;28;20440;-62
2024/01/08 12:15:06;;;;;;;5.20;2.83;;;-2.20;99.90;;;;;;5004906;28;20468;-62
2024/01/08 12:17:35;;;;;;;5.27;2.53;;;-2.20;99.90;;;;;;5028879;28;20435;-61
2024/01/08 12:20:03;;;;;;;7.77;2.97;;;-2.30;99.90;;;;;;5040490;28;20439;-62
2024/01/08 12:22:31;;;;;;;4.87;2.67;;;-2.30;99.90;;;;;;5040431;28;20427;-60
2024/01/08 12:24:59;;;;;;;7.37;3.70;;;-2.30;99.90;;;;;;5039754;28;20454;-62
2024/01/08 12:27:30;;;;;;;2.40;1.93;;;-2.30;99.90;;;;;;5040398;28;20513;-60
2024/01/08 12:29:57;;;;;;;4.97;2.93;;;-2.30;99.90;;;;;;5040049;28;20432;-63
2024/01/08 12:32:28;;;;;;;9.50;4.10;;;-2.30;99.90;;;;;;5039660;28;20479;-62
2024/01/08 12:34:57;;;;;;;8.00;3.10;;;-2.40;99.90;;;;;;5040012;28;20431;-63
2024/01/08 12:37:32;;;;;;;8.20;4.50;;;-2.40;99.90;;;;;;5039607;28;20448;-65
2024/01/08 12:39:59;;;;;;;2.33;1.90;;;-2.30;99.90;;;;;;5039664;28;20432;-61
2024/01/08 12:42:27;;;;;;;5.10;3.87;;;-2.30;99.90;;;;;;5039578;28;20490;-64
2024/01/08 12:44:55;;;;;;;2.37;1.90;;;-2.20;99.90;;;;;;5039253;28;20483;-63
2024/01/08 12:47:22;;;;;;;7.23;3.20;;;-2.20;99.50;;;;;;5018630;28;20494;-63
2024/01/08 12:49:49;;;;;;;3.27;2.23;;;-2.20;99.80;;;;;;5017918;28;20842;-63